sensor_id;sensor_type;location;lat;lon;timestamp;temperature;humidity
44517;DHT22;30223;17.182;-96.766;2023-05-21T00:00:25;28.20;56.30
44517;DHT22;30223;17.182;-96.766;2023-05-21T00:02:52;28.20;56.30
44517;DHT22;30223;17.182;-96.766;2023-05-21T00:05:19;28.20;56.30
44517;DHT22;30223;17.182;-96.766;2023-05-21T00:07:46;28.20;56.30
44517;DHT22;30223;17.182;-96.766;2023-05-21T00:10:13;28.20;56.30
44517;DHT22;30223;17.182;-96.766;2023-05-21T00:12:40;28.20;56.30
44517;DHT22;30223;17.182;-96.766;2023-05-21T00:15:07;28.20;56.40
44517;DHT22;30223;17.182;-96.766;2023-05-21T00:17:34;28.20;56.40
44517;DHT22;30223;17.182;-96.766;2023-05-21T00:20:02;28.20;56.40
44517;DHT22;30223;17.182;-96.766;2023-05-21T00:22:32;28.20;56.40
44517;DHT22;30223;17.182;-96.766;2023-05-21T00:25:01;28.20;56.50
44517;DHT22;30223;17.182;-96.766;2023-05-21T00:27:28;28.20;56.40
44517;DHT22;30223;17.182;-96.766;2023-05-21T00:29:55;28.20;56.50
44517;DHT22;30223;17.182;-96.766;2023-05-21T00:32:21;28.20;56.50
44517;DHT22;30223;17.182;-96.766;2023-05-21T00:34:48;28.10;56.40
44517;DHT22;30223;17.182;-96.766;2023-05-21T00:37:15;28.10;56.40
44517;DHT22;30223;17.182;-96.766;2023-05-21T00:39:41;28.10;56.40
44517;DHT22;30223;17.182;-96.766;2023-05-21T00:42:08;28.10;56.50
44517;DHT22;30223;17.182;-96.766;2023-05-21T00:44:35;28.10;56.40
44517;DHT22;30223;17.182;-96.766;2023-05-21T00:47:02;28.10;56.40
44517;DHT22;30223;17.182;-96.766;2023-05-21T00:49:29;28.10;56.40
44517;DHT22;30223;17.182;-96.766;2023-05-21T00:51:56;28.10;56.40
44517;DHT22;30223;17.182;-96.766;2023-05-21T00:54:27;28.10;56.40
44517;DHT22;30223;17.182;-96.766;2023-05-21T00:56:55;28.00;56.40
44517;DHT22;30223;17.182;-96.766;2023-05-21T00:59:23;28.10;56.50
44517;DHT22;30223;17.182;-96.766;2023-05-21T01:01:50;28.00;56.40
44517;DHT22;30223;17.182;-96.766;2023-05-21T01:04:26;28.00;56.40
44517;DHT22;30223;17.182;-96.766;2023-05-21T01:06:53;28.00;56.40
44517;DHT22;30223;17.182;-96.766;2023-05-21T01:09:21;28.00;56.40
44517;DHT22;30223;17.182;-96.766;2023-05-21T01:11:49;28.00;56.40
44517;DHT22;30223;17.182;-96.766;2023-05-21T01:14:17;27.90;56.30
44517;DHT22;30223;17.182;-96.766;2023-05-21T01:16:47;28.00;56.40
44517;DHT22;30223;17.182;-96.766;2023-05-21T01:19:22;27.90;56.30
44517;DHT22;30223;17.182;-96.766;2023-05-21T01:21:55;27.90;56.30
44517;DHT22;30223;17.182;-96.766;2023-05-21T01:24:22;27.90;56.40
44517;DHT22;30223;17.182;-96.766;2023-05-21T01:26:51;27.90;56.40
44517;DHT22;30223;17.182;-96.766;2023-05-21T01:29:17;27.90;56.40
44517;DHT22;30223;17.182;-96.766;2023-05-21T01:35:43;27.90;56.50
44517;DHT22;30223;17.182;-96.766;2023-05-21T01:40:39;27.80;56.50
44517;DHT22;30223;17.182;-96.766;2023-05-21T01:43:07;27.80;56.40
44517;DHT22;30223;17.182;-96.766;2023-05-21T01:45:38;27.80;56.50
44517;DHT22;30223;17.182;-96.766;2023-05-21T01:48:06;27.80;56.50
44517;DHT22;30223;17.182;-96.766;2023-05-21T01:50:34;27.80;56.50
44517;DHT22;30223;17.182;-96.766;2023-05-21T01:53:01;27.70;56.40
44517;DHT22;30223;17.182;-96.766;2023-05-21T01:55:29;27.70;56.40
44517;DHT22;30223;17.182;-96.766;2023-05-21T01:57:56;27.70;56.40
44517;DHT22;30223;17.182;-96.766;2023-05-21T02:00:26;27.70;56.40
44517;DHT22;30223;17.182;-96.766;2023-05-21T02:02:54;27.70;56.40
44517;DHT22;30223;17.182;-96.766;2023-05-21T02:05:21;27.70;56.40
44517;DHT22;30223;17.182;-96.766;2023-05-21T02:07:49;27.70;56.50
44517;DHT22;30223;17.182;-96.766;2023-05-21T02:10:17;27.70;56.50
44517;DHT22;30223;17.182;-96.766;2023-05-21T02:12:44;27.60;56.40
44517;DHT22;30223;17.182;-96.766;2023-05-21T02:15:11;27.60;56.40
44517;DHT22;30223;17.182;-96.766;2023-05-21T02:17:39;27.60;56.40
44517;DHT22;30223;17.182;-96.766;2023-05-21T02:20:07;27.60;56.40
44517;DHT22;30223;17.182;-96.766;2023-05-21T02:22:42;27.60;56.30
44517;DHT22;30223;17.182;-96.766;2023-05-21T02:25:14;27.60;56.30
44517;DHT22;30223;17.182;-96.766;2023-05-21T02:27:40;27.50;56.20
44517;DHT22;30223;17.182;-96.766;2023-05-21T02:30:11;27.50;56.20
44517;DHT22;30223;17.182;-96.766;2023-05-21T02:32:39;27.50;56.80
44517;DHT22;30223;17.182;-96.766;2023-05-21T02:35:09;27.50;56.20
44517;DHT22;30223;17.182;-96.766;2023-05-21T02:37:36;27.50;56.20
44517;DHT22;30223;17.182;-96.766;2023-05-21T02:40:05;27.50;56.20
44517;DHT22;30223;17.182;-96.766;2023-05-21T02:42:32;27.50;56.20
44517;DHT22;30223;17.182;-96.766;2023-05-21T02:45:01;27.50;56.20
44517;DHT22;30223;17.182;-96.766;2023-05-21T02:47:28;27.50;56.20
44517;DHT22;30223;17.182;-96.766;2023-05-21T02:49:58;27.50;56.20
44517;DHT22;30223;17.182;-96.766;2023-05-21T02:52:25;27.40;56.10
44517;DHT22;30223;17.182;-96.766;2023-05-21T02:54:52;27.40;56.10
44517;DHT22;30223;17.182;-96.766;2023-05-21T02:57:18;27.40;56.10
44517;DHT22;30223;17.182;-96.766;2023-05-21T02:59:45;27.40;56.10
44517;DHT22;30223;17.182;-96.766;2023-05-21T03:02:12;27.40;56.10
44517;DHT22;30223;17.182;-96.766;2023-05-21T03:04:39;27.40;56.10
44517;DHT22;30223;17.182;-96.766;2023-05-21T03:07:14;27.40;56.10
44517;DHT22;30223;17.182;-96.766;2023-05-21T03:09:43;27.30;56.00
44517;DHT22;30223;17.182;-96.766;2023-05-21T03:12:10;27.30;56.00
44517;DHT22;30223;17.182;-96.766;2023-05-21T03:14:37;27.30;56.00
44517;DHT22;30223;17.182;-96.766;2023-05-21T03:17:04;27.30;55.90
44517;DHT22;30223;17.182;-96.766;2023-05-21T03:19:34;27.30;55.90
44517;DHT22;30223;17.182;-96.766;2023-05-21T03:22:04;27.30;55.90
44517;DHT22;30223;17.182;-96.766;2023-05-21T03:24:32;27.30;55.90
44517;DHT22;30223;17.182;-96.766;2023-05-21T03:26:59;27.20;55.80
44517;DHT22;30223;17.182;-96.766;2023-05-21T03:29:31;27.20;55.80
44517;DHT22;30223;17.182;-96.766;2023-05-21T03:31:59;27.20;55.80
44517;DHT22;30223;17.182;-96.766;2023-05-21T03:34:26;27.20;55.80
44517;DHT22;30223;17.182;-96.766;2023-05-21T03:36:52;27.20;55.80
44517;DHT22;30223;17.182;-96.766;2023-05-21T03:39:19;27.20;55.70
44517;DHT22;30223;17.182;-96.766;2023-05-21T03:41:46;27.10;55.70
44517;DHT22;30223;17.182;-96.766;2023-05-21T03:44:13;27.10;55.70
44517;DHT22;30223;17.182;-96.766;2023-05-21T03:46:39;27.10;55.70
44517;DHT22;30223;17.182;-96.766;2023-05-21T03:49:07;27.10;55.60
44517;DHT22;30223;17.182;-96.766;2023-05-21T03:51:34;27.10;55.60
44517;DHT22;30223;17.182;-96.766;2023-05-21T03:54:01;27.10;55.60
44517;DHT22;30223;17.182;-96.766;2023-05-21T03:56:27;27.10;55.70
44517;DHT22;30223;17.182;-96.766;2023-05-21T03:58:54;27.10;55.70
44517;DHT22;30223;17.182;-96.766;2023-05-21T04:01:21;27.10;55.70
44517;DHT22;30223;17.182;-96.766;2023-05-21T04:03:47;27.10;55.70
44517;DHT22;30223;17.182;-96.766;2023-05-21T04:06:15;27.10;55.70
44517;DHT22;30223;17.182;-96.766;2023-05-21T04:08:42;27.10;56.30
44517;DHT22;30223;17.182;-96.766;2023-05-21T04:11:09;27.00;55.60
44517;DHT22;30223;17.182;-96.766;2023-05-21T04:13:37;27.00;55.60
44517;DHT22;30223;17.182;-96.766;2023-05-21T04:16:03;27.00;55.60
44517;DHT22;30223;17.182;-96.766;2023-05-21T04:18:34;27.00;55.70
44517;DHT22;30223;17.182;-96.766;2023-05-21T04:21:00;27.00;55.60
44517;DHT22;30223;17.182;-96.766;2023-05-21T04:23:27;27.00;55.60
44517;DHT22;30223;17.182;-96.766;2023-05-21T04:25:54;27.00;55.60
44517;DHT22;30223;17.182;-96.766;2023-05-21T04:28:20;26.90;55.50
44517;DHT22;30223;17.182;-96.766;2023-05-21T04:30:49;26.90;55.50
44517;DHT22;30223;17.182;-96.766;2023-05-21T04:33:15;26.90;55.50
44517;DHT22;30223;17.182;-96.766;2023-05-21T04:35:45;26.90;55.40
44517;DHT22;30223;17.182;-96.766;2023-05-21T04:38:15;26.90;55.40
44517;DHT22;30223;17.182;-96.766;2023-05-21T04:40:50;26.90;55.40
44517;DHT22;30223;17.182;-96.766;2023-05-21T04:43:18;26.80;55.30
44517;DHT22;30223;17.182;-96.766;2023-05-21T04:45:52;26.80;55.30
44517;DHT22;30223;17.182;-96.766;2023-05-21T04:48:23;26.80;55.30
44517;DHT22;30223;17.182;-96.766;2023-05-21T04:50:51;26.80;55.30
44517;DHT22;30223;17.182;-96.766;2023-05-21T04:53:19;26.80;55.30
44517;DHT22;30223;17.182;-96.766;2023-05-21T04:55:45;26.80;55.30
44517;DHT22;30223;17.182;-96.766;2023-05-21T04:58:12;26.80;55.30
44517;DHT22;30223;17.182;-96.766;2023-05-21T05:00:39;26.80;55.20
44517;DHT22;30223;17.182;-96.766;2023-05-21T05:03:07;26.70;55.20
44517;DHT22;30223;17.182;-96.766;2023-05-21T05:05:33;26.70;55.20
44517;DHT22;30223;17.182;-96.766;2023-05-21T05:08:00;26.70;55.20
44517;DHT22;30223;17.182;-96.766;2023-05-21T05:10:27;26.70;55.20
44517;DHT22;30223;17.182;-96.766;2023-05-21T05:12:54;26.70;55.20
44517;DHT22;30223;17.182;-96.766;2023-05-21T05:15:21;26.70;55.20
44517;DHT22;30223;17.182;-96.766;2023-05-21T05:17:47;26.70;55.20
44517;DHT22;30223;17.182;-96.766;2023-05-21T05:20:15;26.70;55.10
44517;DHT22;30223;17.182;-96.766;2023-05-21T05:22:45;26.70;55.10
44517;DHT22;30223;17.182;-96.766;2023-05-21T05:25:12;26.60;55.00
44517;DHT22;30223;17.182;-96.766;2023-05-21T05:27:38;26.70;55.10
44517;DHT22;30223;17.182;-96.766;2023-05-21T05:30:05;26.60;55.00
44517;DHT22;30223;17.182;-96.766;2023-05-21T05:32:32;26.60;55.10
44517;DHT22;30223;17.182;-96.766;2023-05-21T05:34:59;26.60;55.10
44517;DHT22;30223;17.182;-96.766;2023-05-21T05:37:26;26.60;55.00
44517;DHT22;30223;17.182;-96.766;2023-05-21T05:39:53;26.60;55.00
44517;DHT22;30223;17.182;-96.766;2023-05-21T05:42:19;26.50;55.00
44517;DHT22;30223;17.182;-96.766;2023-05-21T05:44:46;26.60;55.00
44517;DHT22;30223;17.182;-96.766;2023-05-21T05:47:13;26.50;55.00
44517;DHT22;30223;17.182;-96.766;2023-05-21T05:49:39;26.50;54.90
44517;DHT22;30223;17.182;-96.766;2023-05-21T05:52:06;26.50;55.00
44517;DHT22;30223;17.182;-96.766;2023-05-21T05:54:33;26.50;55.50
44517;DHT22;30223;17.182;-96.766;2023-05-21T05:57:00;26.50;54.90
44517;DHT22;30223;17.182;-96.766;2023-05-21T05:59:26;26.50;54.90
44517;DHT22;30223;17.182;-96.766;2023-05-21T06:01:53;26.40;54.90
44517;DHT22;30223;17.182;-96.766;2023-05-21T06:04:20;26.40;54.90
44517;DHT22;30223;17.182;-96.766;2023-05-21T06:06:47;26.40;54.90
44517;DHT22;30223;17.182;-96.766;2023-05-21T06:09:13;26.40;54.80
44517;DHT22;30223;17.182;-96.766;2023-05-21T06:11:40;26.40;54.80
44517;DHT22;30223;17.182;-96.766;2023-05-21T06:14:07;26.40;55.40
44517;DHT22;30223;17.182;-96.766;2023-05-21T06:16:34;26.40;54.90
44517;DHT22;30223;17.182;-96.766;2023-05-21T06:19:02;26.40;54.80
44517;DHT22;30223;17.182;-96.766;2023-05-21T06:21:28;26.40;54.80
44517;DHT22;30223;17.182;-96.766;2023-05-21T06:23:55;26.40;55.50
44517;DHT22;30223;17.182;-96.766;2023-05-21T06:26:22;26.40;54.80
44517;DHT22;30223;17.182;-96.766;2023-05-21T06:28:49;26.30;54.70
44517;DHT22;30223;17.182;-96.766;2023-05-21T06:31:16;26.40;54.80
44517;DHT22;30223;17.182;-96.766;2023-05-21T06:33:43;26.30;54.70
44517;DHT22;30223;17.182;-96.766;2023-05-21T06:36:09;26.30;54.70
44517;DHT22;30223;17.182;-96.766;2023-05-21T06:38:36;26.30;54.70
44517;DHT22;30223;17.182;-96.766;2023-05-21T06:41:03;26.30;54.70
44517;DHT22;30223;17.182;-96.766;2023-05-21T06:43:30;26.30;54.70
44517;DHT22;30223;17.182;-96.766;2023-05-21T06:45:56;26.30;54.70
44517;DHT22;30223;17.182;-96.766;2023-05-21T06:48:23;26.20;54.70
44517;DHT22;30223;17.182;-96.766;2023-05-21T06:50:50;26.20;54.60
44517;DHT22;30223;17.182;-96.766;2023-05-21T06:53:17;26.20;54.60
44517;DHT22;30223;17.182;-96.766;2023-05-21T06:55:43;26.20;54.70
44517;DHT22;30223;17.182;-96.766;2023-05-21T06:58:11;26.20;54.60
44517;DHT22;30223;17.182;-96.766;2023-05-21T07:00:37;26.20;54.60
44517;DHT22;30223;17.182;-96.766;2023-05-21T07:03:04;26.20;54.60
44517;DHT22;30223;17.182;-96.766;2023-05-21T07:05:31;26.20;54.60
44517;DHT22;30223;17.182;-96.766;2023-05-21T07:07:57;26.20;54.60
44517;DHT22;30223;17.182;-96.766;2023-05-21T07:10:24;26.10;54.50
44517;DHT22;30223;17.182;-96.766;2023-05-21T07:12:51;26.20;54.60
44517;DHT22;30223;17.182;-96.766;2023-05-21T07:15:18;26.10;54.50
44517;DHT22;30223;17.182;-96.766;2023-05-21T07:17:44;26.10;54.50
44517;DHT22;30223;17.182;-96.766;2023-05-21T07:20:12;26.10;54.60
44517;DHT22;30223;17.182;-96.766;2023-05-21T07:22:39;26.10;54.50
44517;DHT22;30223;17.182;-96.766;2023-05-21T07:25:07;26.10;54.50
44517;DHT22;30223;17.182;-96.766;2023-05-21T07:27:34;26.10;54.60
44517;DHT22;30223;17.182;-96.766;2023-05-21T07:30:01;26.10;54.60
44517;DHT22;30223;17.182;-96.766;2023-05-21T07:32:28;26.00;54.50
44517;DHT22;30223;17.182;-96.766;2023-05-21T07:34:55;26.00;54.50
44517;DHT22;30223;17.182;-96.766;2023-05-21T07:37:22;26.00;54.50
44517;DHT22;30223;17.182;-96.766;2023-05-21T07:39:48;26.00;54.50
44517;DHT22;30223;17.182;-96.766;2023-05-21T07:42:15;26.00;54.50
44517;DHT22;30223;17.182;-96.766;2023-05-21T07:44:42;26.00;54.50
44517;DHT22;30223;17.182;-96.766;2023-05-21T07:47:08;25.90;54.40
44517;DHT22;30223;17.182;-96.766;2023-05-21T07:49:35;25.90;54.40
44517;DHT22;30223;17.182;-96.766;2023-05-21T07:52:02;25.90;54.40
44517;DHT22;30223;17.182;-96.766;2023-05-21T07:54:29;25.90;54.40
44517;DHT22;30223;17.182;-96.766;2023-05-21T07:56:55;25.90;54.40
44517;DHT22;30223;17.182;-96.766;2023-05-21T07:59:23;25.90;54.40
44517;DHT22;30223;17.182;-96.766;2023-05-21T08:01:49;25.90;54.40
44517;DHT22;30223;17.182;-96.766;2023-05-21T08:04:16;25.90;54.40
44517;DHT22;30223;17.182;-96.766;2023-05-21T08:06:43;25.80;54.30
44517;DHT22;30223;17.182;-96.766;2023-05-21T08:09:10;25.90;54.40
44517;DHT22;30223;17.182;-96.766;2023-05-21T08:11:37;25.90;54.40
44517;DHT22;30223;17.182;-96.766;2023-05-21T08:14:04;25.90;54.40
44517;DHT22;30223;17.182;-96.766;2023-05-21T08:16:31;25.80;54.30
44517;DHT22;30223;17.182;-96.766;2023-05-21T08:18:57;25.80;54.30
44517;DHT22;30223;17.182;-96.766;2023-05-21T08:21:24;25.80;54.30
44517;DHT22;30223;17.182;-96.766;2023-05-21T08:23:54;25.80;54.30
44517;DHT22;30223;17.182;-96.766;2023-05-21T08:26:21;25.70;54.20
44517;DHT22;30223;17.182;-96.766;2023-05-21T08:28:47;25.80;54.30
44517;DHT22;30223;17.182;-96.766;2023-05-21T08:31:16;25.80;54.30
44517;DHT22;30223;17.182;-96.766;2023-05-21T08:33:49;25.70;54.20
44517;DHT22;30223;17.182;-96.766;2023-05-21T08:36:17;25.70;54.20
44517;DHT22;30223;17.182;-96.766;2023-05-21T08:38:44;25.70;54.20
44517;DHT22;30223;17.182;-96.766;2023-05-21T08:41:11;25.70;54.30
44517;DHT22;30223;17.182;-96.766;2023-05-21T08:43:39;25.70;54.20
44517;DHT22;30223;17.182;-96.766;2023-05-21T08:46:07;25.70;54.20
44517;DHT22;30223;17.182;-96.766;2023-05-21T08:48:44;25.70;54.20
44517;DHT22;30223;17.182;-96.766;2023-05-21T08:51:12;25.60;54.20
44517;DHT22;30223;17.182;-96.766;2023-05-21T08:53:39;25.60;54.20
44517;DHT22;30223;17.182;-96.766;2023-05-21T08:56:07;25.60;54.10
44517;DHT22;30223;17.182;-96.766;2023-05-21T08:58:34;25.60;54.10
44517;DHT22;30223;17.182;-96.766;2023-05-21T09:01:02;25.60;54.20
44517;DHT22;30223;17.182;-96.766;2023-05-21T09:03:30;25.60;54.10
44517;DHT22;30223;17.182;-96.766;2023-05-21T09:05:58;25.50;54.10
44517;DHT22;30223;17.182;-96.766;2023-05-21T09:08:28;25.50;54.10
44517;DHT22;30223;17.182;-96.766;2023-05-21T09:10:56;25.50;54.10
44517;DHT22;30223;17.182;-96.766;2023-05-21T09:13:24;25.50;54.00
44517;DHT22;30223;17.182;-96.766;2023-05-21T09:15:52;25.50;54.00
44517;DHT22;30223;17.182;-96.766;2023-05-21T09:18:18;25.50;54.70
44517;DHT22;30223;17.182;-96.766;2023-05-21T09:20:45;25.50;54.10
44517;DHT22;30223;17.182;-96.766;2023-05-21T09:23:16;25.50;54.00
44517;DHT22;30223;17.182;-96.766;2023-05-21T09:25:47;25.50;54.10
44517;DHT22;30223;17.182;-96.766;2023-05-21T09:28:15;25.40;54.00
44517;DHT22;30223;17.182;-96.766;2023-05-21T09:30:46;25.40;54.00
44517;DHT22;30223;17.182;-96.766;2023-05-21T09:33:23;25.40;54.00
44517;DHT22;30223;17.182;-96.766;2023-05-21T09:35:51;25.40;54.00
44517;DHT22;30223;17.182;-96.766;2023-05-21T09:38:18;25.40;54.00
44517;DHT22;30223;17.182;-96.766;2023-05-21T09:40:47;25.40;54.00
44517;DHT22;30223;17.182;-96.766;2023-05-21T09:43:14;25.30;53.90
44517;DHT22;30223;17.182;-96.766;2023-05-21T09:45:51;25.30;53.90
44517;DHT22;30223;17.182;-96.766;2023-05-21T09:48:36;25.30;54.00
44517;DHT22;30223;17.182;-96.766;2023-05-21T09:51:17;25.30;54.00
44517;DHT22;30223;17.182;-96.766;2023-05-21T09:53:55;25.30;54.00
44517;DHT22;30223;17.182;-96.766;2023-05-21T09:56:29;25.30;54.00
44517;DHT22;30223;17.182;-96.766;2023-05-21T09:58:59;25.20;53.90
44517;DHT22;30223;17.182;-96.766;2023-05-21T10:01:27;25.20;53.90
44517;DHT22;30223;17.182;-96.766;2023-05-21T10:03:57;25.20;53.90
44517;DHT22;30223;17.182;-96.766;2023-05-21T10:06:28;25.20;53.90
44517;DHT22;30223;17.182;-96.766;2023-05-21T10:08:58;25.20;53.90
44517;DHT22;30223;17.182;-96.766;2023-05-21T10:11:26;25.20;53.90
44517;DHT22;30223;17.182;-96.766;2023-05-21T10:14:06;25.10;53.90
44517;DHT22;30223;17.182;-96.766;2023-05-21T10:16:34;25.10;53.80
44517;DHT22;30223;17.182;-96.766;2023-05-21T10:19:02;25.10;53.80
44517;DHT22;30223;17.182;-96.766;2023-05-21T10:21:29;25.10;53.80
44517;DHT22;30223;17.182;-96.766;2023-05-21T10:23:59;25.10;53.80
44517;DHT22;30223;17.182;-96.766;2023-05-21T10:26:27;25.10;53.80
44517;DHT22;30223;17.182;-96.766;2023-05-21T10:28:56;25.10;53.80
44517;DHT22;30223;17.182;-96.766;2023-05-21T10:31:25;25.00;53.70
44517;DHT22;30223;17.182;-96.766;2023-05-21T10:33:53;25.10;53.80
44517;DHT22;30223;17.182;-96.766;2023-05-21T10:36:22;25.00;53.70
44517;DHT22;30223;17.182;-96.766;2023-05-21T10:38:49;25.00;53.80
44517;DHT22;30223;17.182;-96.766;2023-05-21T10:41:17;25.00;53.80
44517;DHT22;30223;17.182;-96.766;2023-05-21T10:43:55;25.00;53.80
44517;DHT22;30223;17.182;-96.766;2023-05-21T10:47:02;24.90;53.70
44517;DHT22;30223;17.182;-96.766;2023-05-21T10:49:58;24.90;53.80
44517;DHT22;30223;17.182;-96.766;2023-05-21T10:58:17;24.90;53.80
44517;DHT22;30223;17.182;-96.766;2023-05-21T11:00:46;24.80;53.70
44517;DHT22;30223;17.182;-96.766;2023-05-21T11:03:14;24.80;53.70
44517;DHT22;30223;17.182;-96.766;2023-05-21T11:05:51;24.80;53.70
44517;DHT22;30223;17.182;-96.766;2023-05-21T11:08:30;24.80;53.70
44517;DHT22;30223;17.182;-96.766;2023-05-21T11:10:58;24.80;53.80
44517;DHT22;30223;17.182;-96.766;2023-05-21T11:13:26;24.80;53.80
44517;DHT22;30223;17.182;-96.766;2023-05-21T11:21:12;24.70;53.70
44517;DHT22;30223;17.182;-96.766;2023-05-21T11:23:52;24.70;53.70
44517;DHT22;30223;17.182;-96.766;2023-05-21T11:26:26;24.60;53.60
44517;DHT22;30223;17.182;-96.766;2023-05-21T11:29:30;24.60;53.70
44517;DHT22;30223;17.182;-96.766;2023-05-21T11:31:59;24.60;53.70
44517;DHT22;30223;17.182;-96.766;2023-05-21T11:34:38;24.60;53.70
44517;DHT22;30223;17.182;-96.766;2023-05-21T11:39:46;24.60;53.70
44517;DHT22;30223;17.182;-96.766;2023-05-21T11:42:30;24.50;53.60
44517;DHT22;30223;17.182;-96.766;2023-05-21T11:44:57;24.50;53.60
44517;DHT22;30223;17.182;-96.766;2023-05-21T11:47:25;24.50;53.70
44517;DHT22;30223;17.182;-96.766;2023-05-21T11:49:52;24.50;53.70
44517;DHT22;30223;17.182;-96.766;2023-05-21T11:52:19;24.50;53.70
44517;DHT22;30223;17.182;-96.766;2023-05-21T11:54:49;24.50;53.60
44517;DHT22;30223;17.182;-96.766;2023-05-21T11:57:18;24.50;53.70
44517;DHT22;30223;17.182;-96.766;2023-05-21T11:59:46;24.40;53.60
44517;DHT22;30223;17.182;-96.766;2023-05-21T12:02:18;24.40;53.60
44517;DHT22;30223;17.182;-96.766;2023-05-21T12:04:46;24.40;53.60
44517;DHT22;30223;17.182;-96.766;2023-05-21T12:07:15;24.40;53.60
44517;DHT22;30223;17.182;-96.766;2023-05-21T12:09:49;24.40;53.60
44517;DHT22;30223;17.182;-96.766;2023-05-21T12:12:20;24.40;53.60
44517;DHT22;30223;17.182;-96.766;2023-05-21T12:14:49;24.30;53.60
44517;DHT22;30223;17.182;-96.766;2023-05-21T12:17:21;24.30;53.60
44517;DHT22;30223;17.182;-96.766;2023-05-21T12:19:50;24.30;53.60
44517;DHT22;30223;17.182;-96.766;2023-05-21T12:22:18;24.30;53.60
44517;DHT22;30223;17.182;-96.766;2023-05-21T12:24:45;24.30;53.60
44517;DHT22;30223;17.182;-96.766;2023-05-21T12:27:14;24.30;53.60
44517;DHT22;30223;17.182;-96.766;2023-05-21T12:29:46;24.20;53.50
44517;DHT22;30223;17.182;-96.766;2023-05-21T12:32:15;24.20;53.60
44517;DHT22;30223;17.182;-96.766;2023-05-21T12:34:53;24.20;53.50
44517;DHT22;30223;17.182;-96.766;2023-05-21T12:37:24;24.20;53.60
44517;DHT22;30223;17.182;-96.766;2023-05-21T12:39:53;24.20;53.50
44517;DHT22;30223;17.182;-96.766;2023-05-21T12:42:23;24.20;53.50
44517;DHT22;30223;17.182;-96.766;2023-05-21T12:44:55;24.20;53.50
44517;DHT22;30223;17.182;-96.766;2023-05-21T12:47:23;24.20;53.50
44517;DHT22;30223;17.182;-96.766;2023-05-21T12:49:55;24.10;53.50
44517;DHT22;30223;17.182;-96.766;2023-05-21T12:52:25;24.10;53.50
44517;DHT22;30223;17.182;-96.766;2023-05-21T12:54:55;24.10;53.50
44517;DHT22;30223;17.182;-96.766;2023-05-21T12:57:26;24.10;53.50
44517;DHT22;30223;17.182;-96.766;2023-05-21T12:59:57;24.10;53.50
44517;DHT22;30223;17.182;-96.766;2023-05-21T13:05:01;24.10;53.50
44517;DHT22;30223;17.182;-96.766;2023-05-21T13:07:33;24.10;53.40
44517;DHT22;30223;17.182;-96.766;2023-05-21T13:10:00;24.10;53.50
44517;DHT22;30223;17.182;-96.766;2023-05-21T13:12:29;24.00;53.40
44517;DHT22;30223;17.182;-96.766;2023-05-21T13:14:58;24.10;53.40
44517;DHT22;30223;17.182;-96.766;2023-05-21T13:17:25;24.00;53.40
44517;DHT22;30223;17.182;-96.766;2023-05-21T13:20:08;24.10;53.40
44517;DHT22;30223;17.182;-96.766;2023-05-21T13:22:40;24.00;53.40
44517;DHT22;30223;17.182;-96.766;2023-05-21T13:25:15;24.00;53.30
44517;DHT22;30223;17.182;-96.766;2023-05-21T13:27:43;24.00;53.40
44517;DHT22;30223;17.182;-96.766;2023-05-21T13:30:10;24.00;53.30
44517;DHT22;30223;17.182;-96.766;2023-05-21T13:32:38;24.00;53.40
44517;DHT22;30223;17.182;-96.766;2023-05-21T13:35:05;24.00;53.40
44517;DHT22;30223;17.182;-96.766;2023-05-21T13:37:33;24.00;53.30
44517;DHT22;30223;17.182;-96.766;2023-05-21T13:40:07;24.00;53.30
44517;DHT22;30223;17.182;-96.766;2023-05-21T13:42:36;23.90;53.30
44517;DHT22;30223;17.182;-96.766;2023-05-21T13:45:11;23.90;53.30
44517;DHT22;30223;17.182;-96.766;2023-05-21T13:47:38;24.00;53.30
44517;DHT22;30223;17.182;-96.766;2023-05-21T13:50:06;23.90;53.30
44517;DHT22;30223;17.182;-96.766;2023-05-21T13:52:32;23.90;53.30
44517;DHT22;30223;17.182;-96.766;2023-05-21T13:54:59;24.00;53.30
44517;DHT22;30223;17.182;-96.766;2023-05-21T13:57:26;23.90;53.20
44517;DHT22;30223;17.182;-96.766;2023-05-21T13:59:56;23.90;53.30
44517;DHT22;30223;17.182;-96.766;2023-05-21T14:02:23;23.90;53.20
44517;DHT22;30223;17.182;-96.766;2023-05-21T14:04:50;23.90;53.20
44517;DHT22;30223;17.182;-96.766;2023-05-21T14:07:17;23.90;53.30
44517;DHT22;30223;17.182;-96.766;2023-05-21T14:09:43;23.90;53.40
44517;DHT22;30223;17.182;-96.766;2023-05-21T14:12:10;23.90;53.30
44517;DHT22;30223;17.182;-96.766;2023-05-21T14:14:37;23.90;53.30
44517;DHT22;30223;17.182;-96.766;2023-05-21T14:17:05;23.90;53.40
44517;DHT22;30223;17.182;-96.766;2023-05-21T14:19:32;23.80;53.40
44517;DHT22;30223;17.182;-96.766;2023-05-21T14:21:58;23.80;53.40
44517;DHT22;30223;17.182;-96.766;2023-05-21T14:24:25;23.80;53.40
44517;DHT22;30223;17.182;-96.766;2023-05-21T14:26:52;23.80;53.50
44517;DHT22;30223;17.182;-96.766;2023-05-21T14:29:18;23.80;53.50
44517;DHT22;30223;17.182;-96.766;2023-05-21T14:31:53;23.80;53.50
44517;DHT22;30223;17.182;-96.766;2023-05-21T14:34:19;23.80;53.50
44517;DHT22;30223;17.182;-96.766;2023-05-21T14:36:46;23.80;53.50
44517;DHT22;30223;17.182;-96.766;2023-05-21T14:39:13;23.80;53.50
44517;DHT22;30223;17.182;-96.766;2023-05-21T14:41:39;23.80;53.50
44517;DHT22;30223;17.182;-96.766;2023-05-21T14:44:06;23.80;53.50
44517;DHT22;30223;17.182;-96.766;2023-05-21T14:46:33;23.80;53.50
44517;DHT22;30223;17.182;-96.766;2023-05-21T14:49:01;23.80;53.40
44517;DHT22;30223;17.182;-96.766;2023-05-21T14:51:28;23.80;53.40
44517;DHT22;30223;17.182;-96.766;2023-05-21T14:53:56;23.80;53.40
44517;DHT22;30223;17.182;-96.766;2023-05-21T14:56:23;23.90;53.40
44517;DHT22;30223;17.182;-96.766;2023-05-21T14:58:52;23.90;53.40
44517;DHT22;30223;17.182;-96.766;2023-05-21T15:01:19;23.90;53.40
44517;DHT22;30223;17.182;-96.766;2023-05-21T15:03:46;23.90;53.40
44517;DHT22;30223;17.182;-96.766;2023-05-21T15:06:12;23.90;53.40
44517;DHT22;30223;17.182;-96.766;2023-05-21T15:08:39;23.90;53.40
44517;DHT22;30223;17.182;-96.766;2023-05-21T15:11:06;23.90;53.40
44517;DHT22;30223;17.182;-96.766;2023-05-21T15:13:35;23.90;53.30
44517;DHT22;30223;17.182;-96.766;2023-05-21T15:16:01;23.90;53.30
44517;DHT22;30223;17.182;-96.766;2023-05-21T15:18:28;23.90;53.30
44517;DHT22;30223;17.182;-96.766;2023-05-21T15:20:55;24.00;53.30
44517;DHT22;30223;17.182;-96.766;2023-05-21T15:23:21;24.00;53.40
44517;DHT22;30223;17.182;-96.766;2023-05-21T15:25:48;24.00;53.30
44517;DHT22;30223;17.182;-96.766;2023-05-21T15:28:15;24.00;53.30
44517;DHT22;30223;17.182;-96.766;2023-05-21T15:30:42;24.00;53.30
44517;DHT22;30223;17.182;-96.766;2023-05-21T15:33:08;24.00;53.30